createdAt,value
2018-12-29T00:02:27.340Z,44.23
2018-12-29T00:04:55.729Z,44.22
2018-12-29T00:07:24.103Z,44.44
2018-12-29T00:09:52.486Z,44.35
2018-12-29T00:12:20.866Z,44.45
2018-12-29T00:14:54.966Z,44.15
2018-12-29T00:17:19.340Z,44.37
2018-12-29T00:19:47.710Z,44.18
2018-12-29T00:22:16.093Z,44.53
2018-12-29T00:24:44.472Z,44.63
2018-12-29T00:27:12.855Z,44.74
2018-12-29T00:29:41.269Z,44.46
2018-12-29T00:32:09.650Z,44.59
2018-12-29T00:34:38.023Z,44.76
2018-12-29T00:37:06.400Z,44.37
2018-12-29T00:39:34.776Z,44.76
2018-12-29T00:42:03.154Z,44.68
2018-12-29T00:44:31.527Z,44.60
2018-12-29T00:46:59.919Z,44.72
2018-12-29T00:49:28.284Z,44.48
2018-12-29T00:51:56.664Z,44.76
2018-12-29T00:54:26.438Z,44.50
2018-12-29T00:56:54.889Z,44.67
2018-12-29T00:59:23.279Z,44.74
2018-12-29T01:01:51.887Z,43.96
2018-12-29T01:04:20.263Z,44.73
2018-12-29T01:06:48.630Z,44.79
2018-12-29T01:09:17.014Z,45.04
2018-12-29T01:11:46.373Z,44.86
2018-12-29T01:14:14.757Z,44.51
2018-12-29T01:16:43.124Z,44.60
2018-12-29T01:19:11.717Z,44.93
2018-12-29T01:21:40.092Z,44.66
2018-12-29T01:24:08.469Z,45.43
2018-12-29T01:26:36.847Z,45.43
2018-12-29T01:29:05.229Z,44.96
2018-12-29T01:31:33.599Z,45.16
2018-12-29T01:34:01.977Z,45.27
2018-12-29T01:36:30.349Z,45.10
2018-12-29T01:38:58.727Z,45.05
2018-12-29T01:41:27.099Z,45.05
2018-12-29T01:43:55.472Z,45.10
2018-12-29T01:46:23.850Z,45.23
2018-12-29T01:48:52.221Z,45.17
2018-12-29T01:51:20.598Z,45.00
2018-12-29T01:53:48.971Z,45.20
2018-12-29T01:56:17.350Z,44.83
2018-12-29T01:58:45.718Z,45.11
2018-12-29T02:01:14.100Z,45.10
2018-12-29T02:03:42.468Z,44.37
2018-12-29T02:06:10.856Z,45.25
2018-12-29T02:08:39.229Z,45.35
2018-12-29T02:13:28.318Z,45.31
2018-12-29T02:15:56.717Z,44.91
2018-12-29T02:18:25.082Z,45.24
2018-12-29T02:20:53.453Z,45.39
2018-12-29T02:23:21.836Z,44.92
2018-12-29T02:25:50.209Z,45.29
2018-12-29T02:28:18.607Z,45.10
2018-12-29T02:30:46.969Z,45.14
2018-12-29T02:33:15.354Z,45.37
2018-12-29T02:35:43.723Z,45.28
2018-12-29T02:38:12.358Z,45.54
2018-12-29T02:40:40.731Z,45.34
2018-12-29T02:43:09.114Z,45.50
2018-12-29T02:45:37.485Z,45.23
2018-12-29T02:48:05.936Z,45.40
2018-12-29T02:50:34.307Z,45.60
2018-12-29T02:53:02.684Z,45.59
2018-12-29T02:55:31.063Z,45.82
2018-12-29T02:57:59.455Z,45.84
2018-12-29T03:00:27.824Z,46.13
2018-12-29T03:02:56.203Z,46.08
2018-12-29T03:05:24.575Z,46.73
2018-12-29T03:07:52.953Z,46.95
2018-12-29T03:10:21.336Z,48.00
2018-12-29T03:12:49.783Z,48.00
2018-12-29T03:15:18.159Z,49.85
2018-12-29T03:17:46.553Z,49.46
2018-12-29T03:20:15.169Z,49.61
2018-12-29T03:22:43.563Z,48.10
2018-12-29T03:25:12.767Z,48.06
2018-12-29T03:27:41.153Z,47.45
2018-12-29T03:30:09.613Z,46.92
2018-12-29T03:32:38.001Z,46.74
2018-12-29T03:35:06.538Z,46.46
2018-12-29T03:37:34.944Z,46.08
2018-12-29T03:40:04.390Z,46.11
2018-12-29T03:42:32.766Z,45.74
2018-12-29T03:45:01.142Z,45.36
2018-12-29T03:47:29.529Z,45.69
2018-12-29T03:49:57.907Z,45.68
2018-12-29T03:52:26.283Z,45.71
2018-12-29T03:54:54.655Z,45.24
2018-12-29T03:57:23.046Z,45.64
2018-12-29T03:59:51.415Z,45.62
2018-12-29T04:02:19.786Z,45.15
2018-12-29T04:04:48.176Z,45.83
2018-12-29T04:07:16.548Z,46.03
2018-12-29T04:09:44.926Z,45.78
2018-12-29T04:12:15.042Z,45.94
2018-12-29T04:14:44.162Z,45.93
2018-12-29T04:17:13.063Z,45.96
2018-12-29T04:19:41.450Z,45.65
2018-12-29T04:22:09.819Z,44.89
2018-12-29T04:24:38.210Z,45.71
2018-12-29T04:27:06.583Z,45.77
2018-12-29T04:29:34.964Z,45.64
2018-12-29T04:32:03.333Z,45.54
2018-12-29T04:34:31.720Z,45.94
2018-12-29T04:37:00.093Z,45.28
2018-12-29T04:39:28.485Z,45.85
2018-12-29T04:41:56.858Z,45.89
2018-12-29T04:44:25.238Z,45.70
2018-12-29T04:46:53.611Z,45.71
2018-12-29T04:49:22.006Z,45.70
2018-12-29T04:51:50.371Z,45.94
2018-12-29T04:54:18.757Z,45.62
2018-12-29T04:56:47.127Z,45.40
2018-12-29T04:59:15.506Z,45.73
2018-12-29T05:01:43.880Z,45.54
2018-12-29T05:04:12.262Z,45.41
2018-12-29T05:06:40.632Z,44.98
2018-12-29T05:09:09.010Z,45.48
2018-12-29T05:11:37.607Z,45.86
2018-12-29T05:14:06.006Z,45.96
2018-12-29T05:16:34.379Z,45.81
2018-12-29T05:19:02.762Z,46.24
2018-12-29T05:21:31.135Z,46.08
2018-12-29T05:23:59.515Z,46.32
2018-12-29T05:26:27.883Z,46.23
2018-12-29T05:28:56.260Z,46.21
2018-12-29T05:31:24.796Z,46.00
2018-12-29T05:33:53.179Z,46.03
2018-12-29T05:36:21.543Z,46.15
2018-12-29T05:38:49.904Z,46.17
2018-12-29T05:41:18.287Z,45.89
2018-12-29T05:43:46.650Z,46.16
2018-12-29T05:46:20.438Z,46.04
2018-12-29T05:48:45.125Z,46.27
2018-12-29T05:51:13.745Z,46.05
2018-12-29T05:53:42.120Z,46.37
2018-12-29T05:56:10.496Z,46.18
2018-12-29T05:58:38.863Z,45.48
2018-12-29T06:01:07.248Z,46.06
2018-12-29T06:03:35.612Z,46.06
2018-12-29T06:06:04.000Z,45.79
2018-12-29T06:08:32.418Z,45.79
2018-12-29T06:11:00.753Z,45.92
2018-12-29T06:13:29.117Z,46.21
2018-12-29T06:15:57.496Z,46.26
2018-12-29T06:18:25.860Z,46.33
2018-12-29T06:20:54.241Z,46.43
2018-12-29T06:23:22.621Z,46.40
2018-12-29T06:25:50.994Z,46.41
2018-12-29T06:28:19.378Z,46.44
2018-12-29T06:30:47.749Z,46.14
2018-12-29T06:33:16.125Z,46.46
2018-12-29T06:35:44.503Z,46.36
2018-12-29T06:38:12.873Z,46.24
2018-12-29T06:40:41.247Z,46.25
2018-12-29T06:43:09.615Z,46.17
2018-12-29T06:45:37.985Z,46.10
2018-12-29T06:48:06.372Z,46.10
2018-12-29T06:50:34.746Z,46.33
2018-12-29T06:53:03.128Z,46.35
2018-12-29T06:55:31.494Z,46.20
2018-12-29T06:57:59.875Z,46.06
2018-12-29T07:00:28.243Z,46.32
2018-12-29T07:02:56.622Z,46.34
2018-12-29T07:05:24.987Z,45.87
2018-12-29T07:07:53.366Z,45.90
2018-12-29T07:10:21.734Z,45.68
2018-12-29T07:12:50.115Z,45.83
2018-12-29T07:15:18.483Z,46.05
2018-12-29T07:17:46.864Z,46.11
2018-12-29T07:20:15.462Z,46.22
2018-12-29T07:22:44.376Z,46.17
2018-12-29T07:25:12.743Z,46.42
2018-12-29T07:27:41.124Z,46.49
2018-12-29T07:30:09.491Z,46.60
2018-12-29T07:32:37.875Z,46.39
2018-12-29T07:35:06.246Z,46.70
2018-12-29T07:37:34.630Z,46.64
2018-12-29T07:40:02.999Z,46.62
2018-12-29T07:42:31.377Z,46.65
2018-12-29T07:44:59.740Z,46.53
2018-12-29T07:47:28.125Z,46.58
2018-12-29T07:49:56.494Z,46.85
2018-12-29T07:52:24.872Z,47.12
2018-12-29T07:54:53.243Z,47.03
2018-12-29T07:57:21.621Z,47.17
2018-12-29T07:59:49.995Z,46.92
2018-12-29T08:02:18.378Z,47.05
2018-12-29T08:04:46.747Z,46.79
2018-12-29T08:07:15.126Z,47.00
2018-12-29T08:09:43.498Z,47.25
2018-12-29T08:12:11.883Z,47.05
2018-12-29T08:14:40.248Z,47.00
2018-12-29T08:17:08.618Z,46.83
2018-12-29T08:19:37.009Z,46.58
2018-12-29T08:22:05.383Z,47.00
2018-12-29T08:24:33.783Z,46.66
2018-12-29T08:27:02.151Z,46.64
2018-12-29T08:29:30.530Z,46.70
2018-12-29T08:31:58.904Z,46.55
2018-12-29T08:34:27.291Z,45.90
2018-12-29T08:36:55.661Z,46.34
2018-12-29T08:39:24.042Z,45.96
2018-12-29T08:41:52.414Z,45.15
2018-12-29T08:44:20.796Z,45.90
2018-12-29T08:46:49.169Z,45.16
2018-12-29T08:49:17.553Z,45.51
2018-12-29T08:51:45.928Z,45.81
2018-12-29T08:54:15.079Z,45.47
2018-12-29T08:56:43.447Z,46.94
2018-12-29T08:59:11.833Z,47.02
2018-12-29T09:01:40.201Z,47.13
2018-12-29T09:04:08.585Z,47.05
2018-12-29T09:06:36.957Z,46.91
2018-12-29T09:09:06.570Z,47.11
2018-12-29T09:11:34.937Z,47.05
2018-12-29T09:14:03.322Z,47.36
2018-12-29T09:16:31.696Z,47.12
2018-12-29T09:19:00.075Z,47.39
2018-12-29T09:21:28.445Z,47.48
2018-12-29T09:23:56.827Z,47.32
2018-12-29T09:26:25.198Z,47.01
2018-12-29T09:28:53.582Z,46.84
2018-12-29T09:31:21.953Z,47.38
2018-12-29T09:33:50.335Z,47.58
2018-12-29T09:36:18.708Z,47.28
2018-12-29T09:38:47.084Z,47.31
2018-12-29T09:41:15.577Z,47.14
2018-12-29T09:43:43.958Z,47.49
2018-12-29T09:46:12.327Z,47.37
2018-12-29T09:48:40.699Z,47.43
2018-12-29T09:51:09.083Z,47.29
2018-12-29T09:53:37.449Z,47.49
2018-12-29T09:56:05.824Z,47.39
2018-12-29T09:58:34.201Z,47.72
2018-12-29T10:01:02.596Z,47.74
2018-12-29T10:03:31.033Z,47.70
2018-12-29T10:05:59.416Z,47.63
2018-12-29T10:08:27.784Z,47.48
2018-12-29T10:10:57.808Z,47.54
2018-12-29T10:13:26.180Z,47.81
2018-12-29T10:15:54.564Z,47.95
2018-12-29T10:18:22.939Z,47.60
2018-12-29T10:20:51.321Z,47.48
2018-12-29T10:23:19.691Z,47.55
2018-12-29T10:25:48.068Z,47.90
2018-12-29T10:28:16.441Z,47.82
2018-12-29T10:30:44.822Z,47.81
2018-12-29T10:33:13.196Z,47.93
2018-12-29T10:35:41.576Z,48.08
2018-12-29T10:38:09.954Z,48.10
2018-12-29T10:40:38.332Z,48.17
2018-12-29T10:43:06.715Z,48.29
2018-12-29T10:45:35.101Z,48.39
2018-12-29T10:48:03.470Z,48.23
2018-12-29T10:50:31.857Z,48.01
2018-12-29T10:53:00.230Z,48.17
2018-12-29T10:55:28.621Z,48.04
2018-12-29T10:57:56.982Z,48.17
2018-12-29T11:00:25.368Z,48.15
2018-12-29T11:02:53.746Z,48.04
2018-12-29T11:05:22.127Z,48.20
2018-12-29T11:07:50.497Z,48.25
2018-12-29T11:10:18.874Z,47.77
2018-12-29T11:12:47.262Z,48.09
2018-12-29T11:15:16.657Z,48.12
2018-12-29T11:17:45.085Z,48.20
2018-12-29T11:20:13.466Z,48.20
2018-12-29T11:22:41.843Z,48.36
2018-12-29T11:25:10.215Z,48.19
2018-12-29T11:27:38.600Z,48.39
2018-12-29T11:30:06.983Z,48.44
2018-12-29T11:32:35.373Z,48.26
2018-12-29T11:35:03.815Z,48.36
2018-12-29T11:37:32.196Z,48.52
2018-12-29T11:40:00.568Z,48.46
2018-12-29T11:42:28.951Z,48.29
2018-12-29T11:44:57.332Z,48.36
2018-12-29T11:47:25.719Z,48.07
2018-12-29T11:49:54.093Z,48.14
2018-12-29T11:52:23.451Z,47.90
2018-12-29T11:54:51.819Z,47.91
2018-12-29T11:57:20.197Z,48.01
2018-12-29T11:59:48.569Z,48.32
2018-12-29T12:02:24.305Z,48.34
2018-12-29T12:04:47.042Z,48.43
2018-12-29T12:07:15.417Z,48.41
2018-12-29T12:09:43.791Z,48.35
2018-12-29T12:12:12.171Z,48.51
2018-12-29T12:14:40.580Z,48.51
2018-12-29T12:17:09.365Z,48.40
2018-12-29T12:19:37.738Z,48.45
2018-12-29T12:22:06.135Z,48.24
2018-12-29T12:24:34.499Z,48.44
2018-12-29T12:27:02.880Z,48.33
2018-12-29T12:29:31.257Z,48.37
2018-12-29T12:31:59.629Z,48.54
2018-12-29T12:34:28.000Z,48.33
2018-12-29T12:36:56.421Z,48.00
2018-12-29T12:39:24.744Z,48.36
2018-12-29T12:41:53.111Z,48.40
2018-12-29T12:44:21.491Z,48.55
2018-12-29T12:46:49.865Z,48.49
2018-12-29T12:49:18.237Z,48.43
2018-12-29T12:51:47.091Z,48.46
2018-12-29T12:54:15.471Z,48.54
2018-12-29T12:56:43.863Z,48.45
2018-12-29T12:59:12.415Z,48.18
2018-12-29T13:01:40.781Z,48.31
2018-12-29T13:04:09.161Z,48.48
2018-12-29T13:06:37.532Z,48.49
2018-12-29T13:09:06.682Z,48.46
2018-12-29T13:11:35.050Z,48.38
2018-12-29T13:14:03.441Z,48.26
2018-12-29T13:16:31.806Z,47.80
2018-12-29T13:19:00.187Z,47.12
2018-12-29T13:21:28.558Z,48.43
2018-12-29T13:23:56.939Z,48.27
2018-12-29T13:26:25.310Z,48.44
2018-12-29T13:28:53.829Z,48.14
2018-12-29T13:31:22.133Z,48.35
2018-12-29T13:33:50.515Z,48.26
2018-12-29T13:36:18.891Z,48.43
2018-12-29T13:38:47.479Z,48.44
2018-12-29T13:41:15.852Z,48.25
2018-12-29T13:43:44.231Z,48.41
2018-12-29T13:46:12.598Z,48.41
2018-12-29T13:48:40.978Z,48.36
2018-12-29T13:51:09.346Z,48.14
2018-12-29T13:53:37.736Z,47.95
2018-12-29T13:56:06.107Z,48.21
2018-12-29T13:58:34.485Z,48.23
2018-12-29T14:01:02.862Z,48.24
2018-12-29T14:03:31.234Z,47.95
2018-12-29T14:05:59.614Z,48.32
2018-12-29T14:08:27.982Z,48.32
2018-12-29T14:10:57.718Z,48.39
2018-12-29T14:13:26.013Z,48.40
2018-12-29T14:15:54.392Z,48.45
2018-12-29T14:18:28.240Z,48.52
2018-12-29T14:20:52.868Z,48.35
2018-12-29T14:23:21.248Z,48.11
2018-12-29T14:25:49.630Z,48.45
2018-12-29T14:28:18.008Z,48.46
2018-12-29T14:30:46.392Z,48.51
2018-12-29T14:33:14.766Z,48.12
2018-12-29T14:35:43.143Z,47.95
2018-12-29T14:38:11.517Z,48.26
2018-12-29T14:40:39.899Z,48.41
2018-12-29T14:43:08.271Z,48.42
2018-12-29T14:45:36.653Z,48.26
2018-12-29T14:48:05.018Z,48.25
2018-12-29T14:50:33.395Z,48.34
2018-12-29T14:53:01.763Z,48.12
2018-12-29T14:55:30.149Z,48.17
2018-12-29T14:57:58.513Z,48.02
2018-12-29T15:00:26.896Z,48.02
2018-12-29T15:02:55.267Z,48.15
2018-12-29T15:05:23.650Z,48.00
2018-12-29T15:07:52.018Z,48.20
2018-12-29T15:10:20.408Z,47.53
2018-12-29T15:12:48.781Z,48.04
2018-12-29T15:15:18.213Z,48.16
2018-12-29T15:17:46.577Z,48.12
2018-12-29T15:20:15.234Z,48.15
2018-12-29T15:22:43.608Z,48.12
2018-12-29T15:25:11.992Z,48.13
2018-12-29T15:27:40.637Z,48.27
2018-12-29T15:30:09.012Z,47.99
2018-12-29T15:32:37.395Z,48.08
2018-12-29T15:35:06.040Z,47.99
2018-12-29T15:37:34.416Z,48.10
2018-12-29T15:40:02.793Z,48.06
2018-12-29T15:42:31.213Z,47.86
2018-12-29T15:44:59.582Z,48.07
2018-12-29T15:47:27.963Z,48.05
2018-12-29T15:49:56.608Z,47.74
2018-12-29T15:52:24.994Z,47.89
2018-12-29T15:54:53.362Z,47.98
2018-12-29T15:57:21.767Z,47.25
2018-12-29T15:59:50.513Z,47.89
2018-12-29T16:02:18.897Z,47.93
2018-12-29T16:04:47.548Z,47.96
2018-12-29T16:07:15.922Z,47.90
2018-12-29T16:09:44.293Z,48.08
2018-12-29T16:12:12.955Z,48.22
2018-12-29T16:14:41.317Z,48.18
2018-12-29T16:17:09.699Z,48.16
2018-12-29T16:19:38.067Z,48.18
2018-12-29T16:22:06.448Z,48.12
2018-12-29T16:24:34.809Z,47.98
2018-12-29T16:27:03.460Z,48.04
2018-12-29T16:29:31.839Z,48.03
2018-12-29T16:32:00.204Z,48.20
2018-12-29T16:34:28.584Z,48.17
2018-12-29T16:36:56.954Z,48.23
2018-12-29T16:39:25.342Z,48.24
2018-12-29T16:41:53.702Z,48.24
2018-12-29T16:44:22.083Z,48.10
2018-12-29T16:46:50.629Z,48.13
2018-12-29T16:49:19.009Z,48.09
2018-12-29T16:51:47.373Z,48.08
2018-12-29T16:54:15.760Z,48.18
2018-12-29T16:56:44.127Z,48.04
2018-12-29T16:59:12.509Z,48.14
2018-12-29T17:01:40.881Z,48.12
2018-12-29T17:04:09.259Z,48.06
2018-12-29T17:06:37.806Z,48.15
2018-12-29T17:09:06.726Z,47.97
2018-12-29T17:11:35.101Z,48.14
2018-12-29T17:14:03.487Z,48.15
2018-12-29T17:16:32.143Z,48.11
2018-12-29T17:19:00.527Z,48.15
2018-12-29T17:21:28.897Z,48.17
2018-12-29T17:23:57.278Z,48.20
2018-12-29T17:26:25.645Z,48.27
2018-12-29T17:28:54.013Z,48.29
2018-12-29T17:31:22.572Z,48.21
2018-12-29T17:33:50.943Z,48.21
2018-12-29T17:36:19.335Z,48.10
2018-12-29T17:38:47.724Z,48.10
2018-12-29T17:41:16.116Z,48.25
2018-12-29T17:43:44.863Z,48.25
2018-12-29T17:46:13.249Z,47.80
2018-12-29T17:48:41.619Z,47.80
2018-12-29T17:51:09.994Z,48.12
2018-12-29T17:53:38.367Z,48.20
2018-12-29T17:56:06.752Z,48.19
2018-12-29T17:58:35.123Z,48.24
2018-12-29T18:01:03.505Z,48.32
2018-12-29T18:03:31.878Z,48.28
2018-12-29T18:06:00.326Z,48.38
2018-12-29T18:08:28.692Z,48.69
2018-12-29T18:10:57.079Z,48.45
2018-12-29T18:13:25.615Z,48.84
2018-12-29T18:15:53.989Z,48.83
2018-12-29T18:18:22.495Z,48.71
2018-12-29T18:20:50.934Z,48.78
2018-12-29T18:23:19.699Z,48.86
2018-12-29T18:25:48.066Z,48.73
2018-12-29T18:28:16.542Z,48.60
2018-12-29T18:30:44.903Z,48.60
2018-12-29T18:33:13.562Z,48.64
2018-12-29T18:35:41.934Z,48.52
2018-12-29T18:38:10.318Z,48.30
2018-12-29T18:40:38.684Z,48.64
2018-12-29T18:43:07.070Z,48.74
2018-12-29T18:45:35.727Z,48.47
2018-12-29T18:48:04.403Z,48.74
2018-12-29T18:50:32.771Z,48.57
2018-12-29T18:53:01.142Z,48.82
2018-12-29T18:55:29.535Z,48.58
2018-12-29T18:57:57.906Z,48.72
2018-12-29T19:00:26.564Z,48.65
2018-12-29T19:02:54.953Z,47.96
2018-12-29T19:05:23.348Z,48.51
2018-12-29T19:07:51.722Z,48.56
2018-12-29T19:10:20.114Z,48.41
2018-12-29T19:12:48.488Z,48.40
2018-12-29T19:15:17.159Z,48.40
2018-12-29T19:17:45.804Z,48.20
2018-12-29T19:20:14.470Z,48.22
2018-12-29T19:22:42.863Z,48.57
2018-12-29T19:25:11.229Z,48.57
2018-12-29T19:27:39.618Z,48.60
2018-12-29T19:30:08.261Z,48.64
2018-12-29T19:32:36.646Z,48.64
2018-12-29T19:35:05.535Z,48.48
2018-12-29T19:37:34.207Z,48.50
2018-12-29T19:40:02.575Z,48.61
2018-12-29T19:42:31.266Z,48.51
2018-12-29T19:44:59.636Z,48.51
2018-12-29T19:47:28.007Z,48.56
2018-12-29T19:49:56.663Z,48.48
2018-12-29T19:52:25.036Z,48.57
2018-12-29T19:54:53.416Z,48.56
2018-12-29T19:57:22.057Z,48.47
2018-12-29T19:59:50.460Z,48.47
2018-12-29T20:02:19.205Z,48.55
2018-12-29T20:04:47.762Z,48.58
2018-12-29T20:07:16.417Z,48.55
2018-12-29T20:09:45.067Z,48.46
2018-12-29T20:12:13.438Z,48.52
2018-12-29T20:14:41.816Z,48.34
2018-12-29T20:17:10.184Z,48.43
2018-12-29T20:19:38.564Z,48.39
2018-12-29T20:22:07.214Z,48.42
2018-12-29T20:24:35.596Z,48.52
2018-12-29T20:27:04.198Z,48.18
2018-12-29T20:29:32.586Z,48.38
2018-12-29T20:32:00.952Z,48.56
2018-12-29T20:34:29.600Z,48.31
2018-12-29T20:36:57.976Z,48.51
2018-12-29T20:39:26.346Z,48.49
2018-12-29T20:41:55.426Z,48.38
2018-12-29T20:44:23.778Z,48.53
2018-12-29T20:46:52.151Z,48.44
2018-12-29T20:49:20.934Z,48.47
2018-12-29T20:51:49.334Z,48.42
2018-12-29T20:54:17.716Z,48.47
2018-12-29T20:56:46.082Z,47.69
2018-12-29T20:59:14.461Z,48.21
2018-12-29T21:01:42.909Z,48.40
2018-12-29T21:04:11.346Z,48.41
2018-12-29T21:06:39.721Z,48.44
2018-12-29T21:09:08.766Z,48.44
2018-12-29T21:11:37.144Z,48.46
2018-12-29T21:14:05.508Z,48.26
2018-12-29T21:16:34.161Z,48.32
2018-12-29T21:19:02.528Z,48.26
2018-12-29T21:21:30.913Z,48.16
2018-12-29T21:23:59.278Z,48.38
2018-12-29T21:26:27.656Z,48.41
2018-12-29T21:28:56.013Z,48.39
2018-12-29T21:31:24.390Z,48.47
2018-12-29T21:33:52.758Z,48.41
2018-12-29T21:36:21.257Z,48.34
2018-12-29T21:38:49.631Z,48.38
2018-12-29T21:41:18.010Z,48.24
2018-12-29T21:43:46.650Z,48.06
2018-12-29T21:46:15.034Z,48.25
2018-12-29T21:48:43.419Z,48.25
2018-12-29T21:51:11.783Z,48.33
2018-12-29T21:53:40.154Z,48.17
2018-12-29T21:56:08.535Z,48.28
2018-12-29T21:58:37.078Z,48.25
2018-12-29T22:01:05.459Z,48.31
2018-12-29T22:03:33.830Z,48.32
2018-12-29T22:06:02.214Z,48.36
2018-12-29T22:08:30.580Z,48.07
2018-12-29T22:10:58.959Z,47.88
2018-12-29T22:13:27.332Z,48.30
2018-12-29T22:15:55.714Z,48.30
2018-12-29T22:18:25.055Z,48.31
2018-12-29T22:20:53.431Z,47.90
2018-12-29T22:23:21.819Z,48.28
2018-12-29T22:25:50.474Z,48.18
2018-12-29T22:28:18.850Z,47.89
2018-12-29T22:30:47.293Z,48.15
2018-12-29T22:33:15.675Z,48.29
2018-12-29T22:35:44.042Z,48.05
2018-12-29T22:38:12.422Z,48.22
2018-12-29T22:40:41.139Z,48.23
2018-12-29T22:43:09.518Z,48.29
2018-12-29T22:45:37.892Z,48.19
2018-12-29T22:48:06.280Z,48.21
2018-12-29T22:50:41.026Z,48.22
2018-12-29T22:53:04.753Z,48.26
2018-12-29T22:55:33.121Z,48.22
2018-12-29T22:58:08.393Z,48.37
2018-12-29T23:00:35.993Z,48.36
2018-12-29T23:03:04.371Z,48.20
2018-12-29T23:05:32.747Z,47.91
2018-12-29T23:08:01.122Z,48.22
2018-12-29T23:10:29.495Z,48.22
2018-12-29T23:12:58.157Z,48.22
2018-12-29T23:15:26.527Z,48.03
2018-12-29T23:17:54.920Z,48.14
2018-12-29T23:20:23.289Z,48.28
2018-12-29T23:22:52.018Z,47.88
2018-12-29T23:25:20.395Z,48.23
2018-12-29T23:27:48.777Z,48.13
2018-12-29T23:30:17.151Z,48.11
2018-12-29T23:32:45.818Z,48.17
2018-12-29T23:35:14.194Z,48.19
2018-12-29T23:37:42.562Z,48.11
2018-12-29T23:40:10.947Z,48.11
2018-12-29T23:42:39.316Z,48.05
2018-12-29T23:45:07.769Z,48.06
2018-12-29T23:47:36.411Z,48.13
2018-12-29T23:50:06.610Z,48.10
2018-12-29T23:52:34.978Z,47.91
2018-12-29T23:55:03.353Z,47.86
2018-12-29T23:57:31.725Z,48.14
